In Rescue
 
Open Full Screen Window  High Contrast Mode
Wind Gusting 00 knots
03
April 24, 2019 1:54 AM EDT
Weather Information
Wind Direction
  340 °
Wind Speed
  03 kt (3 mph)
Wind Gust
  00 kt (0 mph)
Altimeter
30.03 in
Visibility
10 SM
Temperature
12° C
54° F
Dewpoint
09° C
48° F
Humidity
82%
1hr Rain Fall
00.00 in.
24hr Rain Fall
00.00 in.
Sky Condition
Overcast @ 6,000 ft
VFR

METAR KI69 240554Z AUTO 34003KT 10SM OVC060 12/09 A3003 RMK AO2 T01220093 10198 20121 402560121

FAA Disclaimer: The data displayed is for advisory purposes only and is not to be used for flight planning or operations.